CSN9 weather

Baie-Comeau / Héli-Manicouagan Heliport
Baie-Comeau, Quebec, Canada

Public forecast

Using degrees Celsius for public forecast. Weather courtesy of forecast.io.

Closest aviation weather report (METAR) to Baie-Comeau / Héli-Manicouagan Heliport

Closest report is Baie Comeau Airport, 5.1 nm (9.5 km) SE. Retrieved 2020/01/25 01:00 UTC (38 minutes ago):

CYBC 250100Z AUTO 34003KT 9SM SCT240 M17/M18 A3053 RMK SLP341

Closest aviation forecast (TAF) to Baie-Comeau / Héli-Manicouagan Heliport

Closest forecast is Baie Comeau Airport, 5.1 nm (9.5 km) SE. Retrieved 2020-01-25 02:00 UTC (0 seconds ago):

TAF CYBC 250138Z 2502/2514 34005KT P6SM SCT240 FM251100 35005KT P6SM SCT020 TEMPO 2511/2514 BKN020 RMK FCST BASED ON AUTO OBS NXT FCST BY 250800Z